Time;durP1;ratioP1;P1;durP2;ratioP2;P2;SDS_P1;SDS_P2;PMS_P1;PMS_P2;Temp;Humidity;BMP_temperature;BMP_pressure;BME280_temperature;BME280_humidity;BME280_pressure;Samples;Min_cycle;Max_cycle;Signal;HPM_P1;HPM_P2
2022/11/25 00:01:25;;;;;;;0.00;0.00;;;;;;;7.26;100.00;99178.94;6278434;22;20270;-74
2022/11/25 00:03:55;;;;;;;0.00;0.00;;;;;;;7.28;100.00;99174.81;6280031;22;20015;-74
2022/11/25 00:06:31;;;;;;;0.00;0.00;;;;;;;7.26;100.00;99182.44;6277050;22;20037;-75
2022/11/25 00:09:09;;;;;;;0.05;0.05;;;;;;;7.41;100.00;99191.69;6276473;22;20011;-75
2022/11/25 00:11:38;;;;;;;0.03;0.03;;;;;;;7.53;100.00;99183.22;6304940;22;20007;-75
2022/11/25 00:14:04;;;;;;;0.10;0.10;;;;;;;7.65;100.00;99181.00;6307850;22;20454;-75
2022/11/25 00:16:30;;;;;;;0.57;0.20;;;;;;;7.83;100.00;99202.16;6280007;22;20028;-74
2022/11/25 00:18:57;;;;;;;0.00;0.00;;;;;;;7.86;100.00;99203.53;6243072;22;20011;-74
2022/11/25 00:21:25;;;;;;;0.00;0.00;;;;;;;7.89;100.00;99207.59;6309652;22;20007;-76
2022/11/25 00:23:59;;;;;;;0.20;0.10;;;;;;;7.92;100.00;99207.84;6301167;22;20007;-75
2022/11/25 00:26:32;;;;;;;0.15;0.08;;;;;;;7.84;100.00;99197.53;6245570;22;20347;-75
2022/11/25 00:28:59;;;;;;;0.00;0.00;;;;;;;7.91;100.00;99202.69;6238003;23;20141;-74
2022/11/25 00:31:32;;;;;;;0.00;0.00;;;;;;;7.86;100.00;99198.88;6236492;23;20071;-75
2022/11/25 00:34:38;;;;;;;;;;;;;;;;;;;;;
2022/11/25 00:37:13;;;;;;;0.00;0.00;;;;;;;7.73;100.00;99194.03;6230559;22;20091;-77
2022/11/25 00:39:48;;;;;;;;;;;;;;;;;;;;;
2022/11/25 00:44:58;;;;;;;0.93;0.32;;;;;;;7.74;100.00;99214.72;6241446;23;20089;-75
2022/11/25 00:47:24;;;;;;;0.47;0.47;;;;;;;7.68;100.00;99213.91;6234635;23;20004;-75
2022/11/25 00:49:53;;;;;;;0.00;0.00;;;;;;;7.71;100.00;99209.84;6213844;23;20024;-75
2022/11/25 00:52:24;;;;;;;1.45;0.52;;;;;;;7.75;100.00;99240.81;6260648;22;20119;-76
2022/11/25 00:54:50;;;;;;;0.10;0.10;;;;;;;7.71;100.00;99239.78;6257838;22;20011;-76
2022/11/25 00:57:18;;;;;;;0.00;0.00;;;;;;;7.59;100.00;99236.53;6206665;23;20335;-75
2022/11/25 00:59:46;;;;;;;0.00;0.00;;;;;;;7.67;100.00;99249.56;6233307;23;20007;-75
2022/11/25 01:02:13;;;;;;;0.00;0.00;;;;;;;7.67;100.00;99260.47;6235757;22;20335;-76
2022/11/25 01:04:38;;;;;;;2.20;0.85;;;;;;;7.71;100.00;99252.53;6239106;22;20060;-74
2022/11/25 01:07:06;;;;;;;0.00;0.00;;;;;;;7.71;100.00;99245.22;6239660;22;20665;-77
2022/11/25 01:09:32;;;;;;;0.47;0.22;;;;;;;7.61;100.00;99245.25;6236049;22;20329;-77
2022/11/25 01:11:59;;;;;;;0.00;0.00;;;;;;;7.65;100.00;99246.28;6264886;22;20012;-78
2022/11/25 01:14:25;;;;;;;0.00;0.00;;;;;;;7.70;100.00;99251.75;6182673;23;20872;-78
2022/11/25 01:16:51;;;;;;;1.95;1.50;;;;;;;7.73;100.00;99258.53;6239301;23;20008;-77
2022/11/25 01:19:17;;;;;;;0.00;0.00;;;;;;;7.80;100.00;99270.75;6235378;23;20011;-75
2022/11/25 01:21:45;;;;;;;0.10;0.10;;;;;;;7.72;100.00;99263.16;6238238;22;20070;-77
2022/11/25 01:24:13;;;;;;;1.27;0.47;;;;;;;7.78;100.00;99283.84;6242452;22;20326;-77
2022/11/25 01:26:39;;;;;;;2.40;1.05;;;;;;;7.83;100.00;99283.00;6268943;22;20015;-77
2022/11/25 01:29:07;;;;;;;1.42;0.88;;;;;;;7.82;100.00;99290.34;6264811;22;20011;-77
2022/11/25 01:31:35;;;;;;;0.00;0.00;;;;;;;7.76;100.00;99296.91;6239296;22;20004;-75
2022/11/25 01:34:10;;;;;;;6.40;2.00;;;;;;;7.70;100.00;99303.44;6245384;22;20015;-78
2022/11/25 01:36:36;;;;;;;0.30;0.15;;;;;;;7.68;100.00;99305.59;6266215;22;20422;-76
2022/11/25 01:39:02;;;;;;;0.00;0.00;;;;;;;7.55;100.00;99306.16;6265140;22;20014;-75
2022/11/25 01:41:30;;;;;;;0.00;0.00;;;;;;;7.57;100.00;99314.88;6264942;22;20008;-75
2022/11/25 01:44:08;;;;;;;0.00;0.00;;;;;;;7.57;100.00;99314.88;6271061;22;20014;-76
2022/11/25 01:47:14;;;;;;;0.00;0.00;;;;;;;7.68;100.00;99327.38;6267156;22;20008;-75
2022/11/25 01:49:48;;;;;;;0.00;0.00;;;;;;;7.68;100.00;99327.38;6264876;22;20326;-74
2022/11/25 01:52:14;;;;;;;0.00;0.00;;;;;;;7.70;100.00;99330.66;6265963;22;20004;-76
2022/11/25 01:54:48;;;;;;;0.00;0.00;;;;;;;7.72;100.00;99339.34;6264748;22;19995;-77
2022/11/25 01:57:19;;;;;;;0.00;0.00;;;;;;;7.68;100.00;99341.81;6271254;22;20004;-74
2022/11/25 01:59:49;;;;;;;0.00;0.00;;;;;;;7.67;100.00;99342.09;6268582;22;20141;-75
2022/11/25 02:02:16;;;;;;;0.00;0.00;;;;;;;7.74;100.00;99349.97;6268003;22;20065;-75
2022/11/25 02:04:43;;;;;;;0.00;0.00;;;;;;;7.75;100.00;99360.56;6213029;22;20018;-76
2022/11/25 02:07:33;;;;;;;0.00;0.00;;;;;;;7.74;100.00;99350.78;6262806;22;20053;-76
2022/11/25 02:10:02;;;;;;;0.00;0.00;;;;;;;7.73;100.00;99368.19;6262405;22;20090;-76
2022/11/25 02:12:29;;;;;;;0.00;0.00;;;;;;;7.68;100.00;99374.47;6268362;22;19999;-77
2022/11/25 02:14:56;;;;;;;0.08;0.08;;;;;;;7.65;100.00;99377.72;6265112;22;20319;-76
2022/11/25 02:17:21;;;;;;;0.00;0.00;;;;;;;7.64;100.00;99386.19;6265844;22;20046;-76
2022/11/25 02:19:57;;;;;;;0.00;0.00;;;;;;;7.61;100.00;99384.81;6243564;22;20000;-77
2022/11/25 02:22:32;;;;;;;0.00;0.00;;;;;;;7.57;100.00;99391.88;6261936;22;20010;-76
2022/11/25 02:25:13;;;;;;;0.00;0.00;;;;;;;7.51;100.00;99393.78;6254935;22;20023;-77
2022/11/25 02:27:40;;;;;;;0.00;0.00;;;;;;;7.53;100.00;99406.28;6211709;23;20011;-77
2022/11/25 02:30:06;;;;;;;0.00;0.00;;;;;;;7.51;100.00;99407.38;6239158;23;20008;-78
2022/11/25 02:32:31;;;;;;;0.00;0.00;;;;;;;7.45;100.00;99411.19;6260021;22;20077;-75
2022/11/25 02:34:59;;;;;;;0.00;0.00;;;;;;;7.42;100.00;99417.16;6209034;23;20012;-77
2022/11/25 02:37:24;;;;;;;0.00;0.00;;;;;;;7.44;100.00;99414.97;6231420;22;20809;-76
2022/11/25 02:39:51;;;;;;;0.00;0.00;;;;;;;7.34;100.00;99415.78;6235695;23;20008;-77
2022/11/25 02:42:20;;;;;;;0.00;0.00;;;;;;;7.27;100.00;99420.69;6259217;22;20004;-76
2022/11/25 02:44:48;;;;;;;0.00;0.00;;;;;;;7.25;100.00;99438.34;6235054;22;20013;-77
2022/11/25 02:47:14;;;;;;;0.00;0.00;;;;;;;7.25;100.00;99432.91;6235128;22;20012;-75
2022/11/25 02:49:39;;;;;;;0.00;0.00;;;;;;;7.22;100.00;99441.59;6206227;23;20032;-76
2022/11/25 02:52:12;;;;;;;0.00;0.00;;;;;;;7.21;100.00;99431.81;6211819;23;20024;-77
2022/11/25 02:54:40;;;;;;;1.45;1.17;;;;;;;7.12;100.00;99435.03;6204389;23;20042;-77
2022/11/25 02:57:05;;;;;;;0.00;0.00;;;;;;;7.17;100.00;99442.41;6264810;22;20550;-77
2022/11/25 02:59:31;;;;;;;0.00;0.00;;;;;;;7.17;100.00;99447.84;6213676;23;20003;-77
2022/11/25 03:01:56;;;;;;;1.13;0.63;;;;;;;7.18;100.00;99451.38;6229910;23;20000;-76
2022/11/25 03:04:22;;;;;;;0.00;0.00;;;;;;;7.09;100.00;99443.72;6234021;23;20012;-76
2022/11/25 03:06:47;;;;;;;0.25;0.10;;;;;;;7.11;100.00;99457.03;6236783;23;20737;-78
2022/11/25 03:09:13;;;;;;;0.00;0.00;;;;;;;7.09;100.00;99451.06;6214046;23;20004;-78
2022/11/25 03:14:22;;;;;;;0.70;0.30;;;;;;;7.10;100.00;99472.56;6240864;23;20015;-76
2022/11/25 03:16:47;;;;;;;0.00;0.00;;;;;;;7.04;100.00;99483.66;6262214;22;20012;-76
2022/11/25 03:19:13;;;;;;;0.08;0.08;;;;;;;7.03;100.00;99482.84;6186517;23;20422;-77
2022/11/25 03:21:38;;;;;;;0.00;0.00;;;;;;;7.01;100.00;99492.34;6214677;23;20038;-76
2022/11/25 03:24:04;;;;;;;0.00;0.00;;;;;;;6.96;100.00;99487.72;6229313;22;20359;-76
2022/11/25 03:26:30;;;;;;;0.00;0.00;;;;;;;6.97;100.00;99503.75;6212923;22;20047;-78
2022/11/25 03:28:55;;;;;;;0.00;0.00;;;;;;;6.97;100.00;99497.50;6237189;23;20023;-77
2022/11/25 03:31:20;;;;;;;0.10;0.10;;;;;;;6.94;100.00;99493.41;6204914;23;20012;-77
2022/11/25 03:33:46;;;;;;;0.00;0.00;;;;;;;6.98;100.00;99508.13;6211324;23;20483;-76
2022/11/25 03:36:11;;;;;;;0.00;0.00;;;;;;;6.97;100.00;99508.38;6234752;22;20454;-77
2022/11/25 03:38:37;;;;;;;0.00;0.00;;;;;;;6.96;100.00;99514.91;6235947;22;20024;-76
2022/11/25 03:41:02;;;;;;;0.00;0.00;;;;;;;6.93;100.00;99518.16;6231730;22;20011;-77
2022/11/25 03:43:31;;;;;;;0.00;0.00;;;;;;;6.82;100.00;99512.66;6262054;22;20335;-76
2022/11/25 03:45:57;;;;;;;0.00;0.00;;;;;;;6.89;100.00;99522.47;6242154;23;20000;-76
2022/11/25 03:48:22;;;;;;;0.00;0.00;;;;;;;6.89;100.00;99528.75;6236847;23;20765;-75
2022/11/25 03:50:48;;;;;;;0.00;0.00;;;;;;;6.90;100.00;99545.84;6183973;23;20012;-76
2022/11/25 03:53:13;;;;;;;0.20;0.10;;;;;;;6.86;100.00;99545.53;6207279;23;20008;-76
2022/11/25 03:55:39;;;;;;;0.00;0.00;;;;;;;6.79;100.00;99545.78;6211985;23;20023;-76
2022/11/25 03:58:04;;;;;;;0.00;0.00;;;;;;;6.72;100.00;99556.06;6235561;23;20008;-77
2022/11/25 04:00:32;;;;;;;0.10;0.10;;;;;;;6.74;100.00;99566.69;6189762;23;20008;-76
2022/11/25 04:02:57;;;;;;;0.00;0.00;;;;;;;6.70;100.00;99577.25;6190846;23;20004;-76
2022/11/25 04:05:23;;;;;;;0.00;0.00;;;;;;;6.67;100.00;99574.22;6208096;23;20018;-77
2022/11/25 04:07:48;;;;;;;0.00;0.00;;;;;;;6.67;100.00;99585.91;6240377;22;20043;-76
2022/11/25 04:10:14;;;;;;;0.08;0.08;;;;;;;6.66;100.00;99587.00;6236331;23;20062;-76
2022/11/25 04:12:45;;;;;;;0.00;0.00;;;;;;;6.58;100.00;99585.56;6241705;23;20032;-76
2022/11/25 04:15:16;;;;;;;0.00;0.00;;;;;;;6.61;100.00;99597.81;6164508;23;20019;-75
2022/11/25 04:17:42;;;;;;;0.55;0.25;;;;;;;6.59;100.00;99600.00;6236725;23;19996;-76
2022/11/25 04:20:08;;;;;;;0.10;0.10;;;;;;;6.57;100.00;99608.41;6238732;23;20012;-75
2022/11/25 04:22:34;;;;;;;0.10;0.10;;;;;;;6.46;100.00;99602.06;6214122;23;20296;-77
2022/11/25 04:25:01;;;;;;;0.10;0.10;;;;;;;6.42;100.00;99606.34;6233611;22;20020;-76
2022/11/25 04:27:27;;;;;;;0.00;0.00;;;;;;;6.46;100.00;99631.94;6240555;22;20026;-76
2022/11/25 04:29:52;;;;;;;0.10;0.10;;;;;;;6.42;100.00;99617.22;6236457;23;20418;-76
2022/11/25 04:32:18;;;;;;;0.00;0.00;;;;;;;6.33;100.00;99620.69;6238367;23;20090;-77
2022/11/25 04:34:51;;;;;;;0.00;0.00;;;;;;;6.29;100.00;99633.94;6265719;22;20007;-76
2022/11/25 04:37:21;;;;;;;0.00;0.00;;;;;;;6.23;100.00;99629.53;6214587;22;20015;-77
2022/11/25 04:39:46;;;;;;;0.00;0.00;;;;;;;6.19;100.00;99628.41;6236928;23;20007;-75
2022/11/25 04:45:01;;;;;;;1.77;0.77;;;;;;;6.18;100.00;99627.59;6241009;23;20011;-77
2022/11/25 04:47:31;;;;;;;0.00;0.00;;;;;;;6.21;100.00;99639.84;6231754;23;20039;-76
2022/11/25 04:49:57;;;;;;;0.00;0.00;;;;;;;6.23;100.00;99651.25;6241005;22;20364;-76
2022/11/25 04:52:28;;;;;;;0.10;0.10;;;;;;;6.11;100.00;99643.28;6209936;23;20064;-77
2022/11/25 04:54:53;;;;;;;0.03;0.03;;;;;;;6.19;100.00;99652.84;6238603;23;20081;-77
2022/11/25 04:57:27;;;;;;;0.00;0.00;;;;;;;6.14;100.00;99659.03;6234516;22;20004;-76
2022/11/25 04:59:53;;;;;;;2.00;0.65;;;;;;;6.08;100.00;99660.88;6238795;22;20011;-76
2022/11/25 05:02:24;;;;;;;0.55;0.25;;;;;;;6.04;100.00;99665.19;6259067;22;20012;-77
2022/11/25 05:05:07;;;;;;;0.98;0.38;;;;;;;6.00;100.00;99677.63;6240025;23;20024;-76
2022/11/25 05:07:32;;;;;;;0.10;0.10;;;;;;;5.98;100.00;99679.78;6232851;23;20008;-76
2022/11/25 05:09:58;;;;;;;0.00;0.00;;;;;;;5.98;100.00;99687.91;6188205;23;20725;-75
2022/11/25 05:12:35;;;;;;;0.00;0.00;;;;;;;5.96;100.00;99687.31;6185301;23;20014;-75
2022/11/25 05:15:04;;;;;;;0.00;0.00;;;;;;;5.91;100.00;99703.53;6239988;22;20000;-75
2022/11/25 05:17:35;;;;;;;0.10;0.10;;;;;;;5.91;100.00;99706.25;6237027;23;20054;-75
2022/11/25 05:20:01;;;;;;;0.00;0.00;;;;;;;5.91;100.00;99704.38;6239897;23;20015;-76
2022/11/25 05:22:31;;;;;;;0.00;0.00;;;;;;;5.87;100.00;99716.81;6237764;23;20331;-77
2022/11/25 05:24:57;;;;;;;7.18;2.28;;;;;;;5.81;100.00;99711.56;6253298;22;20094;-75
2022/11/25 05:27:23;;;;;;;0.10;0.10;;;;;;;5.83;100.00;99729.22;6272833;22;19999;-74
2022/11/25 05:29:49;;;;;;;0.00;0.00;;;;;;;5.77;100.00;99728.34;6244299;22;20434;-76
2022/11/25 05:32:15;;;;;;;0.00;0.00;;;;;;;5.70;100.00;99741.25;6274093;22;19999;-76
2022/11/25 05:34:43;;;;;;;0.03;0.03;;;;;;;5.60;100.00;99738.41;6270792;22;19999;-75
2022/11/25 05:37:11;;;;;;;0.00;0.00;;;;;;;5.58;100.00;99741.38;6274911;22;20013;-76
2022/11/25 05:39:37;;;;;;;0.05;0.05;;;;;;;5.63;100.00;99756.88;6246924;22;20333;-77
2022/11/25 05:42:12;;;;;;;0.00;0.00;;;;;;;5.62;100.00;99755.25;6298306;22;19995;-76
2022/11/25 05:44:38;;;;;;;0.00;0.00;;;;;;;5.58;100.00;99754.13;6250179;22;20011;-78
2022/11/25 05:47:06;;;;;;;0.10;0.10;;;;;;;5.48;100.00;99743.13;6242752;22;20150;-78
2022/11/25 05:49:37;;;;;;;0.25;0.15;;;;;;;5.49;100.00;99767.28;6251322;22;20006;-76
2022/11/25 05:52:02;;;;;;;0.65;0.25;;;;;;;5.48;100.00;99775.66;6243098;22;20110;-76
2022/11/25 05:54:42;;;;;;;0.00;0.00;;;;;;;5.38;100.00;99768.19;6275140;22;20007;-78
2022/11/25 05:57:13;;;;;;;0.70;0.35;;;;;;;5.27;100.00;99769.94;6246606;22;20062;-77
2022/11/25 05:59:48;;;;;;;0.00;0.00;;;;;;;5.23;100.00;99785.84;6273274;22;20025;-76
2022/11/25 06:02:33;;;;;;;0.00;0.00;;;;;;;5.15;100.00;99785.44;6296445;22;20013;-76
2022/11/25 06:05:07;;;;;;;0.00;0.00;;;;;;;5.25;100.00;99804.59;6300743;22;20009;-76
2022/11/25 06:07:33;;;;;;;0.00;0.00;;;;;;;5.10;100.00;99798.94;6294947;22;20423;-76
2022/11/25 06:09:58;;;;;;;0.05;0.05;;;;;;;5.18;100.00;99817.47;6275094;22;19999;-76
2022/11/25 06:12:36;;;;;;;3.63;1.25;;;;;;;5.16;100.00;99822.34;6266325;22;20022;-76
2022/11/25 06:15:01;;;;;;;0.00;0.00;;;;;;;5.16;100.00;99831.28;6301381;22;20141;-76
2022/11/25 06:17:27;;;;;;;0.00;0.00;;;;;;;5.18;100.00;99831.03;6266966;22;20500;-75
2022/11/25 06:19:52;;;;;;;4.10;2.33;;;;;;;5.16;100.00;99825.84;6249082;22;20007;-76
2022/11/25 06:22:18;;;;;;;0.10;0.10;;;;;;;5.20;100.00;99839.75;6221998;22;20003;-75
2022/11/25 06:24:43;;;;;;;0.10;0.10;;;;;;;5.20;100.00;99839.75;6243210;22;20023;-76
2022/11/25 06:27:15;;;;;;;0.00;0.00;;;;;;;5.20;100.00;99839.75;6222304;22;20018;-76
2022/11/25 06:29:40;;;;;;;2.40;0.80;;;;;;;5.25;100.00;99845.25;6268258;22;20421;-76
2022/11/25 06:32:05;;;;;;;0.10;0.10;;;;;;;5.22;100.00;99854.69;6249321;22;20038;-77
2022/11/25 06:34:41;;;;;;;0.10;0.10;;;;;;;5.26;100.00;99876.72;6272080;22;20004;-77
2022/11/25 06:37:07;;;;;;;3.20;1.08;;;;;;;5.19;100.00;99865.22;6299713;22;20337;-76
2022/11/25 06:39:35;;;;;;;0.10;0.10;;;;;;;5.17;100.00;99872.75;6272799;22;20014;-75
2022/11/25 06:42:00;;;;;;;0.32;0.25;;;;;;;5.21;100.00;99882.03;6218080;22;20068;-76
2022/11/25 06:44:26;;;;;;;0.10;0.10;;;;;;;5.13;100.00;99877.03;6223002;22;20011;-75
2022/11/25 06:46:58;;;;;;;0.00;0.00;;;;;;;5.27;100.00;99894.66;6246959;22;20019;-78
2022/11/25 06:49:28;;;;;;;0.10;0.10;;;;;;;5.28;100.00;99906.28;6265604;22;20332;-75
2022/11/25 06:52:39;;;;;;;0.10;0.10;;;;;;;5.24;100.00;99911.38;6275450;22;20010;-81
2022/11/25 06:57:59;;;;;;;0.10;0.10;;;;;;;5.21;100.00;99917.28;6150157;23;20054;-83
2022/11/25 07:04:36;;;;;;;0.00;0.00;;;;;;;5.01;100.00;99913.13;6063138;23;20045;-82
2022/11/25 07:07:01;;;;;;;0.00;0.00;;;;;;;5.09;100.00;99940.91;5918868;23;20009;-80
2022/11/25 07:09:34;;;;;;;0.10;0.10;;;;;;;4.92;100.00;99930.00;6104870;23;20014;-82
2022/11/25 07:11:59;;;;;;;0.75;0.75;;;;;;;4.87;100.00;99938.84;6154751;23;20029;-81
2022/11/25 07:14:42;;;;;;;0.10;0.10;;;;;;;4.79;100.00;99936.50;6148336;23;20429;-83
2022/11/25 07:17:26;;;;;;;;;;;;;;;;;;;;;
2022/11/25 07:22:47;;;;;;;0.00;0.00;;;;;;;4.85;100.00;99941.00;6151434;23;20009;-84
2022/11/25 07:25:35;;;;;;;;;;;;;;;5.04;100.00;99988.53;6149481;23;20043;-82
2022/11/25 07:28:01;;;;;;;0.00;0.00;;;;;;;5.07;100.00;99993.47;6193077;22;19938;-83
2022/11/25 07:30:32;;;;;;;0.45;0.20;;;;;;;5.01;100.00;99993.63;6253356;22;20014;-84
2022/11/25 07:33:18;;;;;;;0.10;0.10;;;;;;;4.96;100.00;100002.44;6277375;22;19996;-83
2022/11/25 07:35:56;;;;;;;;;;;;;;;;;;;;;
2022/11/25 07:38:36;;;;;;;;;;;;;;;;;;;;;
2022/11/25 07:41:22;;;;;;;0.00;0.00;;;;;;;4.95;100.00;100022.50;6299743;22;20089;-77
2022/11/25 07:43:53;;;;;;;0.10;0.10;;;;;;;4.97;100.00;100030.38;6273391;22;20090;-78
2022/11/25 07:46:51;;;;;;;0.10;0.10;;;;;;;5.04;100.00;100041.91;6269768;22;20106;-82
2022/11/25 07:49:24;;;;;;;0.10;0.10;;;;;;;4.97;100.00;100038.50;6197228;22;20452;-82
2022/11/25 07:52:06;;;;;;;;;;;;;;;;;;;;;
2022/11/25 07:54:38;;;;;;;0.05;0.05;;;;;;;4.96;100.00;100053.13;6299359;22;20079;-83
2022/11/25 07:57:23;;;;;;;;;;;;;;;;;;;;;
2022/11/25 07:59:52;;;;;;;0.00;0.00;;;;;;;5.04;100.00;100075.25;6308579;22;20078;-84
2022/11/25 08:03:01;;;;;;;0.10;0.10;;;;;;;5.10;100.00;100072.66;6208852;23;20013;-83
2022/11/25 08:05:36;;;;;;;0.10;0.10;;;;;;;5.21;100.00;100085.34;6205409;23;20386;-79
2022/11/25 08:08:02;;;;;;;0.00;0.00;;;;;;;5.33;100.00;100102.44;6162433;23;20008;-86
2022/11/25 08:11:33;;;;;;;;;;;;;;;;;;;;;
2022/11/25 08:14:02;;;;;;;0.10;0.10;;;;;;;5.53;100.00;100129.13;6209054;23;20175;-79
2022/11/25 08:19:54;;;;;;;0.10;0.10;;;;;;;5.80;100.00;100158.44;6209995;23;20065;-79
2022/11/25 08:26:14;;;;;;;0.10;0.10;;;;;;;5.88;100.00;100159.94;6122016;23;20046;-77
2022/11/25 08:28:43;;;;;;;0.00;0.00;;;;;;;5.92;100.00;100156.50;6119367;23;20017;-78
2022/11/25 08:31:58;;;;;;;0.00;0.00;;;;;;;6.07;100.00;100168.75;6116762;23;20543;-79
2022/11/25 08:35:38;;;;;;;;;;;;;;;;;;;;;
2022/11/25 08:38:18;;;;;;;0.20;0.20;;;;;;;6.16;100.00;100183.59;6115241;23;20909;-78
2022/11/25 08:41:08;;;;;;;8.57;2.75;;;;;;;6.25;100.00;100203.88;6119868;23;20020;-78
2022/11/25 08:44:29;;;;;;;;;;;;;;;;;;;;;
2022/11/25 08:47:03;;;;;;;0.10;0.10;;;;;;;6.27;100.00;100200.91;6167265;23;20398;-80
2022/11/25 08:49:32;;;;;;;0.00;0.00;;;;;;;6.51;100.00;100225.25;6197968;23;20529;-79
2022/11/25 08:52:05;;;;;;;0.05;0.05;;;;;;;6.70;100.00;100237.56;6153370;23;20015;-80
2022/11/25 08:57:19;;;;;;;0.00;0.00;;;;;;;6.80;100.00;100236.91;6147002;23;20009;-80
2022/11/25 09:03:25;;;;;;;0.10;0.10;;;;;;;7.06;100.00;100262.63;6148251;23;20061;-80
2022/11/25 09:05:51;;;;;;;0.20;0.20;;;;;;;7.20;100.00;100282.16;6094410;23;20013;-79
2022/11/25 09:08:26;;;;;;;0.20;0.20;;;;;;;7.38;100.00;100297.41;6120373;23;20341;-80
2022/11/25 09:10:59;;;;;;;0.03;0.03;;;;;;;8.23;100.00;100274.63;6127914;23;20699;-80
2022/11/25 09:14:11;;;;;;;0.00;0.00;;;;;;;10.96;100.00;100291.75;6152797;23;20391;-80
2022/11/25 09:20:17;;;;;;;4.38;1.38;;;;;;;15.42;78.20;100304.31;6098080;23;20311;-80
2022/11/25 09:22:43;;;;;;;1.95;1.85;;;;;;;16.46;72.72;100298.50;6253486;22;20056;-80
2022/11/25 09:25:11;;;;;;;0.00;0.00;;;;;;;17.54;69.20;100298.78;6275210;22;20007;-80
2022/11/25 09:27:37;;;;;;;0.10;0.10;;;;;;;18.31;65.34;100305.00;6215525;23;20031;-79
2022/11/25 09:30:03;;;;;;;0.00;0.00;;;;;;;18.82;63.10;100301.84;6237416;23;20004;-79
2022/11/25 09:33:07;;;;;;;0.00;0.00;;;;;;;19.45;61.73;100320.91;6239149;23;20007;-79
2022/11/25 09:35:33;;;;;;;5.72;1.85;;;;;;;19.72;60.24;100305.84;6240473;23;20086;-76
2022/11/25 09:38:01;;;;;;;0.20;0.20;;;;;;;20.48;58.75;100314.53;6236061;22;20093;-81
2022/11/25 09:41:03;;;;;;;0.98;0.43;;;;;;;21.19;57.89;100344.31;6240038;23;20011;-78
2022/11/25 09:47:13;;;;;;;;;;;;;;;;;;;;;
2022/11/25 09:50:17;;;;;;;;;;;;;;;;;;;;;
2022/11/25 09:53:11;;;;;;;0.00;0.00;;;;;;;25.27;51.77;100355.03;6241017;22;20082;-79
2022/11/25 09:56:02;;;;;;;0.10;0.10;;;;;;;26.44;49.34;100344.78;6199070;22;20062;-80
2022/11/25 09:58:39;;;;;;;0.00;0.00;;;;;;;26.71;48.08;100342.00;6205840;23;20431;-79
2022/11/25 10:01:20;;;;;;;0.00;0.00;;;;;;;27.75;48.23;100345.34;6235382;23;20008;-78
2022/11/25 10:07:45;;;;;;;0.00;0.00;;;;;;;29.83;45.42;100376.06;6216659;23;20003;-79
2022/11/25 10:10:33;;;;;;;;;;;;;;;;;;;;;
2022/11/25 10:12:59;;;;;;;0.00;0.00;;;;;;;30.18;44.97;100382.97;6237791;23;20071;-77
2022/11/25 10:15:45;;;;;;;0.00;0.00;;;;;;;29.66;44.10;100384.06;6239240;23;20028;-78
2022/11/25 10:18:37;;;;;;;0.75;0.25;;;;;;;29.91;46.60;100397.44;6236486;23;20080;-79
2022/11/25 10:21:05;;;;;;;0.00;0.00;;;;;;;30.21;46.09;100384.97;6259122;22;20016;-78
2022/11/25 10:23:33;;;;;;;0.00;0.00;;;;;;;29.95;43.82;100386.97;6240087;22;20031;-77
2022/11/25 10:26:24;;;;;;;0.00;0.00;;;;;;;29.96;45.97;100390.59;6264988;22;20040;-79
2022/11/25 10:28:55;;;;;;;0.00;0.00;;;;;;;29.80;40.85;100388.91;6239093;23;20031;-78
2022/11/25 10:31:42;;;;;;;0.00;0.00;;;;;;;29.33;45.51;100402.84;6236043;23;20069;-80
2022/11/25 10:38:21;;;;;;;;;;;;;;;;;;;;;
2022/11/25 10:40:51;;;;;;;8.60;1.20;;;;;;;27.64;44.30;100416.25;6239551;23;20079;-77
2022/11/25 10:43:17;;;;;;;0.00;0.00;;;;;;;27.72;44.30;100421.97;6236042;23;20012;-76
2022/11/25 10:46:04;;;;;;;0.20;0.10;;;;;;;28.08;45.02;100419.56;6209875;23;20776;-79
2022/11/25 10:48:54;;;;;;;0.20;0.20;;;;;;;28.51;42.65;100434.03;6238992;23;20087;-78
2022/11/25 10:51:39;;;;;;;0.00;0.00;;;;;;;28.09;45.07;100443.66;6236363;22;20493;-77
2022/11/25 10:54:10;;;;;;;2.47;0.95;;;;;;;28.24;45.98;100442.63;6241144;23;20027;-78
2022/11/25 10:56:49;;;;;;;0.00;0.00;;;;;;;28.84;45.26;100457.59;6236762;22;20008;-76
2022/11/25 10:59:27;;;;;;;0.35;0.20;;;;;;;28.34;43.82;100447.53;6216630;23;20058;-77
2022/11/25 11:02:21;;;;;;;2.08;1.27;;;;;;;28.44;42.20;100465.69;6238220;23;20083;-79
2022/11/25 11:05:05;;;;;;;0.00;0.00;;;;;;;28.06;46.45;100441.63;6235521;22;20034;-78
2022/11/25 11:07:34;;;;;;;0.10;0.10;;;;;;;28.55;41.94;100451.75;6236846;23;20069;-78
2022/11/25 11:10:17;;;;;;;0.00;0.00;;;;;;;28.45;43.03;100466.50;6236662;23;20019;-78
2022/11/25 11:12:57;;;;;;;0.00;0.00;;;;;;;28.93;45.02;100480.59;6237236;22;20008;-78
2022/11/25 11:18:37;;;;;;;3.10;1.08;;;;;;;29.68;45.92;100494.34;6223418;22;20008;-76
2022/11/25 11:21:22;;;;;;;0.00;0.00;;;;;;;30.13;45.05;100490.53;6239525;23;20011;-79
2022/11/25 11:24:06;;;;;;;;;;;;;;;;;;;;;
2022/11/25 11:26:32;;;;;;;;;;;;;;;31.17;42.66;100509.56;6266451;22;20094;-76
2022/11/25 11:29:15;;;;;;;0.00;0.00;;;;;;;30.57;39.42;100509.16;6296299;22;19972;-78
2022/11/25 11:32:05;;;;;;;0.20;0.20;;;;;;;29.94;43.46;100518.63;6273924;22;20002;-80
2022/11/25 11:34:33;;;;;;;1.08;0.98;;;;;;;30.29;41.28;100521.97;6263051;22;19999;-78
2022/11/25 11:37:07;;;;;;;0.00;0.00;;;;;;;30.29;40.53;100524.78;6272313;22;20003;-79
2022/11/25 11:39:59;;;;;;;0.00;0.00;;;;;;;29.80;45.74;100529.00;6277451;22;20089;-73
2022/11/25 11:43:19;;;;;;;4.68;1.17;;;;;;;30.49;42.44;100533.72;6299411;22;20006;-79
2022/11/25 11:46:17;;;;;;;0.43;0.20;;;;;;;30.36;45.07;100527.63;6146626;22;20015;-81
2022/11/25 11:49:10;;;;;;;0.00;0.00;;;;;;;30.80;42.38;100529.31;6276914;22;20011;-80
2022/11/25 11:52:07;;;;;;;;;;;;;;;;;;;;;
2022/11/25 11:54:45;;;;;;;0.17;0.17;;;;;;;31.31;44.46;100534.97;6305007;22;20078;-79
2022/11/25 11:57:43;;;;;;;0.00;0.00;;;;;;;31.56;43.38;100534.09;6275417;22;20350;-78
2022/11/25 12:00:14;;;;;;;0.00;0.00;;;;;;;31.01;41.91;100522.09;6266553;22;20045;-78
2022/11/25 12:03:01;;;;;;;0.00;0.00;;;;;;;31.50;42.08;100547.84;6269659;22;20042;-78
2022/11/25 12:05:32;;;;;;;0.00;0.00;;;;;;;31.91;44.93;100550.16;6268040;22;20054;-78
2022/11/25 12:08:19;;;;;;;0.00;0.00;;;;;;;32.19;45.08;100554.91;6267020;22;20383;-78
2022/11/25 12:10:52;;;;;;;0.00;0.00;;;;;;;32.48;42.64;100553.94;6295204;22;20003;-77
2022/11/25 12:13:34;;;;;;;0.00;0.00;;;;;;;31.14;41.87;100550.72;6294333;22;20019;-74
2022/11/25 12:16:31;;;;;;;0.47;0.17;;;;;;;30.21;47.47;100554.16;6271139;22;20007;-75
2022/11/25 12:19:25;;;;;;;0.00;0.00;;;;;;;30.65;43.13;100555.94;6190504;22;20090;-79
2022/11/25 12:22:03;;;;;;;0.00;0.00;;;;;;;30.01;43.93;100568.59;6303245;22;20003;-79
2022/11/25 12:24:39;;;;;;;0.00;0.00;;;;;;;30.25;44.24;100561.44;6272252;22;20088;-78
2022/11/25 12:27:10;;;;;;;0.00;0.00;;;;;;;29.87;44.53;100566.50;6303612;22;20007;-78
2022/11/25 12:30:00;;;;;;;0.00;0.00;;;;;;;30.04;48.39;100576.28;6272649;22;20003;-77
2022/11/25 12:32:45;;;;;;;0.00;0.00;;;;;;;29.90;44.41;100574.19;6269500;22;20028;-77
2022/11/25 12:35:10;;;;;;;0.00;0.00;;;;;;;29.63;45.67;100576.44;6299678;22;20003;-76
2022/11/25 12:38:17;;;;;;;0.00;0.00;;;;;;;30.01;48.46;100590.34;6272957;22;20437;-77
2022/11/25 12:40:47;;;;;;;0.00;0.00;;;;;;;29.56;46.32;100587.66;6299312;22;20003;-78
2022/11/25 12:43:21;;;;;;;0.00;0.00;;;;;;;29.18;49.10;100584.13;6272937;22;20010;-77
2022/11/25 12:45:57;;;;;;;0.00;0.00;;;;;;;29.87;47.06;100591.09;6272771;22;20004;-76
2022/11/25 12:48:23;;;;;;;0.00;0.00;;;;;;;30.40;48.99;100592.50;6300058;22;19999;-77
2022/11/25 12:51:09;;;;;;;0.00;0.00;;;;;;;30.32;46.81;100588.84;6245907;22;20007;-77
2022/11/25 12:54:11;;;;;;;0.00;0.00;;;;;;;30.75;46.21;100607.94;6273046;22;20000;-78
2022/11/25 12:57:06;;;;;;;0.00;0.00;;;;;;;30.73;47.92;100602.69;6248241;22;20417;-77
2022/11/25 12:59:43;;;;;;;0.47;0.25;;;;;;;30.63;46.87;100604.28;6254813;22;20820;-78
2022/11/25 13:02:47;;;;;;;0.00;0.00;;;;;;;30.62;51.15;100607.50;6301786;22;19995;-79
2022/11/25 13:05:40;;;;;;;0.00;0.00;;;;;;;30.99;48.60;100614.81;6272504;22;20035;-79
2022/11/25 13:18:29;;;;;;;;;;;;;;;;;;;;;
2022/11/25 13:21:08;;;;;;;0.00;0.00;;;;;;;29.10;50.49;100633.13;6306458;22;20073;-80
2022/11/25 13:23:51;;;;;;;0.00;0.00;;;;;;;28.71;53.79;100620.31;6275420;22;20441;-83
2022/11/25 13:26:36;;;;;;;0.00;0.00;;;;;;;28.83;54.71;100636.88;6300243;22;20015;-79